Time;durP1;ratioP1;P1;durP2;ratioP2;P2;SDS_P1;SDS_P2;PMS_P1;PMS_P2;Temp;Humidity;BMP_temperature;BMP_pressure;BME280_temperature;BME280_humidity;BME280_pressure;Samples;Min_cycle;Max_cycle;Signal;HPM_P1;HPM_P2
2023/02/17 15:26:43;;;;;;;34.70;21.52;;;;;;;;;;4055502;23;20431;-87
2023/02/17 15:29:16;;;;;;;35.28;20.27;;;;;;;;;;4921476;29;20454;-85
2023/02/17 15:31:42;;;;;;;33.72;21.65;;;;;;;;;;4922929;29;20039;-85
2023/02/17 15:34:11;;;;;;;35.92;23.50;;;;;;;;;;4908538;29;20039;-86
2023/02/17 15:36:37;;;;;;;32.17;20.63;;;;;;;;;;4916395;29;20024;-85
2023/02/17 15:39:03;;;;;;;37.53;23.33;;;;;;;;;;4923535;29;20052;-85
2023/02/17 15:41:30;;;;;;;39.63;22.25;;;;;;;;;;4923057;29;20047;-86
2023/02/17 15:43:56;;;;;;;37.88;20.25;;;;;;;;;;4922997;29;20036;-84
2023/02/17 15:46:26;;;;;;;39.78;21.63;;;;;;;;;;4901533;29;20063;-85
2023/02/17 15:48:52;;;;;;;41.33;21.98;;;;;;;;;;4907568;29;20032;-85
2023/02/17 15:51:18;;;;;;;44.50;22.15;;;;;;;;;;4899403;29;20036;-85
2023/02/17 15:53:48;;;;;;;43.58;24.20;;;;;;;;;;4920850;29;20059;-85
2023/02/17 15:56:16;;;;;;;58.75;34.45;;;;;;;;;;4922967;29;20036;-84
2023/02/17 15:58:43;;;;;;;53.08;33.65;;;;;;;;;;4922725;29;20107;-84
2023/02/17 16:01:16;;;;;;;64.97;39.80;;;;;;;;;;4922411;29;20024;-84
2023/02/17 16:03:42;;;;;;;69.57;41.65;;;;;;;;;;4905770;29;20431;-85
2023/02/17 16:06:09;;;;;;;70.90;40.33;;;;;;;;;;4922772;29;20031;-84
2023/02/17 16:08:35;;;;;;;61.88;37.90;;;;;;;;;;4905535;29;20118;-84
2023/02/17 16:14:05;;;;;;;63.40;38.15;;;;;;;;;;4922192;29;20035;-84
2023/02/17 16:16:32;;;;;;;78.13;47.35;;;;;;;;;;4922797;29;20036;-85
2023/02/17 16:18:59;;;;;;;89.18;51.25;;;;;;;;;;4919375;29;20025;-85
2023/02/17 16:21:25;;;;;;;98.90;65.15;;;;;;;;;;4919691;29;20036;-85
2023/02/17 16:23:57;;;;;;;138.52;83.63;;;;;;;;;;4921487;29;20032;-85
2023/02/17 16:26:26;;;;;;;127.05;84.05;;;;;;;;;;4922588;29;20039;-84
2023/02/17 16:28:53;;;;;;;106.38;67.13;;;;;;;;;;4921738;29;20052;-86
2023/02/17 16:31:19;;;;;;;114.35;62.55;;;;;;;;;;4905670;29;20040;-84
2023/02/17 16:33:45;;;;;;;168.48;86.85;;;;;;;;;;4922607;29;20028;-85
2023/02/17 16:36:16;;;;;;;280.83;126.85;;;;;;;;;;4922221;29;20036;-84
2023/02/17 16:38:42;;;;;;;450.08;218.65;;;;;;;;;;4903598;29;20040;-85
2023/02/17 16:41:15;;;;;;;362.67;175.55;;;;;;;;;;4921827;29;20024;-84
2023/02/17 16:43:42;;;;;;;300.88;151.85;;;;;;;;;;4890022;29;20367;-85
2023/02/17 16:46:17;;;;;;;248.68;135.50;;;;;;;;;;4905120;29;20032;-85
2023/02/17 16:48:43;;;;;;;226.13;127.50;;;;;;;;;;4921604;29;20454;-84
2023/02/17 16:51:09;;;;;;;164.88;90.93;;;;;;;;;;4905116;29;20410;-85
2023/02/17 16:53:35;;;;;;;126.00;61.20;;;;;;;;;;4920312;29;20403;-86
2023/02/17 16:56:06;;;;;;;108.25;53.50;;;;;;;;;;4905126;29;20334;-86
2023/02/17 16:58:32;;;;;;;115.35;55.42;;;;;;;;;;4920758;29;20048;-80
2023/02/17 17:00:58;;;;;;;130.43;64.78;;;;;;;;;;4921659;29;20032;-86
2023/02/17 17:03:24;;;;;;;132.20;69.45;;;;;;;;;;4921670;29;20024;-84
2023/02/17 17:05:53;;;;;;;176.40;96.80;;;;;;;;;;4921999;29;20064;-86
2023/02/17 17:08:19;;;;;;;154.18;83.13;;;;;;;;;;4904996;29;20039;-86
2023/02/17 17:10:45;;;;;;;143.77;80.75;;;;;;;;;;4920866;29;20072;-86
2023/02/17 17:13:48;;;;;;;117.43;59.85;;;;;;;;;;4921641;29;20052;-86
2023/02/17 17:16:15;;;;;;;152.10;78.32;;;;;;;;;;4904960;29;20035;-86
2023/02/17 17:18:42;;;;;;;129.48;69.22;;;;;;;;;;4904724;29;20036;-86
2023/02/17 17:21:10;;;;;;;138.80;68.05;;;;;;;;;;4903292;29;20059;-79
2023/02/17 17:23:36;;;;;;;137.32;74.43;;;;;;;;;;4904266;29;20076;-85
2023/02/17 17:26:03;;;;;;;291.00;139.48;;;;;;;;;;4920079;29;20028;-86
2023/02/17 17:28:29;;;;;;;175.18;103.78;;;;;;;;;;4901988;29;20506;-85
2023/02/17 17:30:55;;;;;;;181.88;111.07;;;;;;;;;;4921379;29;20127;-86
2023/02/17 17:33:21;;;;;;;170.82;87.03;;;;;;;;;;4904076;29;20044;-84
2023/02/17 17:35:47;;;;;;;173.60;86.57;;;;;;;;;;4904501;29;20033;-84
2023/02/17 17:38:14;;;;;;;114.18;62.35;;;;;;;;;;4904572;29;20124;-86
2023/02/17 17:40:51;;;;;;;98.50;52.33;;;;;;;;;;4921178;29;20099;-84
2023/02/17 17:43:22;;;;;;;94.53;48.28;;;;;;;;;;4904757;29;20028;-86
2023/02/17 17:45:49;;;;;;;97.55;49.80;;;;;;;;;;4921141;29;20028;-86
2023/02/17 17:48:15;;;;;;;96.30;51.38;;;;;;;;;;4918995;29;20084;-89
2023/02/17 17:50:42;;;;;;;97.38;52.95;;;;;;;;;;4904146;29;20016;-84
2023/02/17 17:53:08;;;;;;;246.20;112.50;;;;;;;;;;4904442;29;20155;-85
2023/02/17 17:55:34;;;;;;;201.00;108.78;;;;;;;;;;4903725;29;20028;-84
2023/02/17 17:58:00;;;;;;;136.98;81.90;;;;;;;;;;4915755;29;20130;-87
2023/02/17 18:00:27;;;;;;;139.18;81.47;;;;;;;;;;4920480;29;20031;-87
2023/02/17 18:02:53;;;;;;;136.98;78.65;;;;;;;;;;4904650;29;20040;-86
2023/02/17 18:05:19;;;;;;;131.40;71.60;;;;;;;;;;4920892;29;20024;-86
2023/02/17 18:07:46;;;;;;;132.38;70.35;;;;;;;;;;4904339;29;20159;-86
2023/02/17 18:10:13;;;;;;;106.90;61.90;;;;;;;;;;4921043;29;20041;-86
2023/02/17 18:15:42;;;;;;;119.50;61.28;;;;;;;;;;4921091;29;20034;-86
2023/02/17 18:18:09;;;;;;;116.30;59.00;;;;;;;;;;4921023;29;20402;-86
2023/02/17 18:20:35;;;;;;;112.93;57.58;;;;;;;;;;4921230;29;20035;-86
2023/02/17 18:23:01;;;;;;;122.15;59.25;;;;;;;;;;4921163;29;20034;-87
2023/02/17 18:25:27;;;;;;;103.82;52.92;;;;;;;;;;4920872;29;20437;-86
2023/02/17 18:27:55;;;;;;;134.68;72.80;;;;;;;;;;4920784;29;20036;-86
2023/02/17 18:30:22;;;;;;;130.18;71.28;;;;;;;;;;4920602;29;20060;-86
2023/02/17 18:32:48;;;;;;;115.30;62.08;;;;;;;;;;4920837;29;20032;-86
2023/02/17 18:35:15;;;;;;;136.43;69.20;;;;;;;;;;4904296;29;20035;-86
2023/02/17 18:37:41;;;;;;;130.98;71.85;;;;;;;;;;4923922;29;20383;-86
2023/02/17 18:40:11;;;;;;;123.10;67.85;;;;;;;;;;4924366;29;20028;-86
2023/02/17 18:42:38;;;;;;;135.80;74.13;;;;;;;;;;4907600;29;20035;-85
2023/02/17 18:45:04;;;;;;;126.07;74.18;;;;;;;;;;4923929;29;20032;-86
2023/02/17 18:47:30;;;;;;;131.95;72.63;;;;;;;;;;4905543;29;20067;-86
2023/02/17 18:49:56;;;;;;;124.95;65.18;;;;;;;;;;4905370;29;20028;-86
2023/02/17 18:52:23;;;;;;;121.47;67.70;;;;;;;;;;4903966;29;20036;-85
2023/02/17 18:54:49;;;;;;;118.35;65.03;;;;;;;;;;4905113;29;20021;-86
2023/02/17 19:00:19;;;;;;;163.27;95.88;;;;;;;;;;4924176;29;20082;-86
2023/02/17 19:02:45;;;;;;;199.68;113.95;;;;;;;;;;4907611;29;20414;-87
2023/02/17 19:05:12;;;;;;;191.45;111.10;;;;;;;;;;4907065;29;20048;-86
2023/02/17 19:07:38;;;;;;;151.10;89.60;;;;;;;;;;4923596;29;20072;-86
2023/02/17 19:10:05;;;;;;;132.90;79.63;;;;;;;;;;4907199;29;20137;-86
2023/02/17 19:12:32;;;;;;;135.27;80.00;;;;;;;;;;4924006;29;20024;-86
2023/02/17 19:14:59;;;;;;;138.52;86.63;;;;;;;;;;4923769;29;20035;-85
2023/02/17 19:17:25;;;;;;;134.00;80.57;;;;;;;;;;4923528;29;20365;-85
2023/02/17 19:19:51;;;;;;;140.50;83.05;;;;;;;;;;4907150;29;20028;-86
2023/02/17 19:22:18;;;;;;;154.32;91.38;;;;;;;;;;4923822;29;20032;-85
2023/02/17 19:24:44;;;;;;;158.75;95.95;;;;;;;;;;4923737;29;20025;-85
2023/02/17 19:27:10;;;;;;;142.48;88.50;;;;;;;;;;4923550;29;20032;-86
2023/02/17 19:29:36;;;;;;;138.98;85.53;;;;;;;;;;4922859;29;20051;-86
2023/02/17 19:32:03;;;;;;;123.35;76.70;;;;;;;;;;4919920;29;20096;-86
2023/02/17 19:34:30;;;;;;;134.82;81.43;;;;;;;;;;4904486;29;20028;-86
2023/02/17 19:36:56;;;;;;;216.27;122.63;;;;;;;;;;4888142;29;20507;-86
2023/02/17 19:39:22;;;;;;;220.40;125.50;;;;;;;;;;4887750;29;20047;-86
2023/02/17 19:41:48;;;;;;;179.98;108.03;;;;;;;;;;4904589;29;20056;-86
2023/02/17 19:44:14;;;;;;;158.57;96.13;;;;;;;;;;4911845;29;20043;-85
2023/02/17 19:46:41;;;;;;;126.90;78.28;;;;;;;;;;4906452;29;20060;-88
2023/02/17 19:49:07;;;;;;;142.90;87.03;;;;;;;;;;4921620;29;20323;-86
2023/02/17 19:51:33;;;;;;;110.20;68.80;;;;;;;;;;4906595;29;20103;-87
2023/02/17 19:54:00;;;;;;;105.35;60.72;;;;;;;;;;4923135;29;20031;-85
2023/02/17 19:56:31;;;;;;;84.47;49.92;;;;;;;;;;4922718;29;20059;-85
2023/02/17 19:59:34;;;;;;;83.55;48.70;;;;;;;;;;4922446;29;20032;-86
2023/02/17 20:02:00;;;;;;;98.78;58.13;;;;;;;;;;4914613;29;20148;-85
2023/02/17 20:04:26;;;;;;;103.93;55.22;;;;;;;;;;4903210;29;20043;-87
2023/02/17 20:06:53;;;;;;;100.68;56.00;;;;;;;;;;4923171;29;20043;-86
2023/02/17 20:09:20;;;;;;;104.30;54.05;;;;;;;;;;4923083;29;20103;-86
2023/02/17 20:11:47;;;;;;;103.22;56.78;;;;;;;;;;4922709;29;20031;-87
2023/02/17 20:14:13;;;;;;;101.43;56.15;;;;;;;;;;4922353;29;20025;-88
2023/02/17 20:16:40;;;;;;;103.28;53.90;;;;;;;;;;4906205;29;20032;-88
2023/02/17 20:19:06;;;;;;;95.40;50.95;;;;;;;;;;4921557;29;20115;-86
2023/02/17 20:21:33;;;;;;;98.85;54.17;;;;;;;;;;4909341;29;20119;-86
2023/02/17 20:23:59;;;;;;;89.38;48.30;;;;;;;;;;4903587;29;20035;-86
2023/02/17 20:26:30;;;;;;;110.25;58.08;;;;;;;;;;4886966;29;20063;-88
2023/02/17 20:29:05;;;;;;;91.82;49.67;;;;;;;;;;4919365;29;20143;-87
2023/02/17 20:31:31;;;;;;;78.35;41.42;;;;;;;;;;4903618;29;20123;-87
2023/02/17 20:33:57;;;;;;;80.28;42.38;;;;;;;;;;4903452;29;20017;-86
2023/02/17 20:36:24;;;;;;;75.82;41.25;;;;;;;;;;4886245;29;20025;-88
2023/02/17 20:38:50;;;;;;;67.18;39.00;;;;;;;;;;4886852;29;20055;-89
2023/02/17 20:41:17;;;;;;;67.28;38.05;;;;;;;;;;4886729;29;20036;-87
2023/02/17 20:44:01;;;;;;;61.03;35.05;;;;;;;;;;4886713;29;20037;-87
2023/02/17 20:46:28;;;;;;;55.92;32.72;;;;;;;;;;4898679;29;20036;-88
2023/02/17 20:48:55;;;;;;;54.03;31.42;;;;;;;;;;4868176;29;20052;-88
2023/02/17 20:51:21;;;;;;;51.88;30.98;;;;;;;;;;4868073;29;20040;-85
2023/02/17 20:53:47;;;;;;;57.33;30.95;;;;;;;;;;4884375;29;20025;-89
2023/02/17 20:56:21;;;;;;;66.00;32.97;;;;;;;;;;4886250;29;20021;-87
2023/02/17 20:59:07;;;;;;;59.30;28.92;;;;;;;;;;4886539;29;20112;-87
2023/02/17 21:01:34;;;;;;;71.55;33.45;;;;;;;;;;4902398;29;20028;-87
2023/02/17 21:04:00;;;;;;;61.60;30.95;;;;;;;;;;4889337;29;20368;-88
2023/02/17 21:06:28;;;;;;;60.45;29.85;;;;;;;;;;4886316;29;20048;-89
2023/02/17 21:08:56;;;;;;;54.83;28.63;;;;;;;;;;4886240;29;20040;-87
2023/02/17 21:11:22;;;;;;;51.92;27.48;;;;;;;;;;4903214;29;20025;-87
2023/02/17 21:13:49;;;;;;;54.88;27.63;;;;;;;;;;4885642;29;20422;-87
2023/02/17 21:16:16;;;;;;;45.25;22.98;;;;;;;;;;4902557;29;20323;-81
2023/02/17 21:18:43;;;;;;;46.00;23.05;;;;;;;;;;4900777;29;20088;-80
2023/02/17 21:21:10;;;;;;;46.85;23.30;;;;;;;;;;4901856;29;20032;-81
2023/02/17 21:23:36;;;;;;;41.67;21.83;;;;;;;;;;4901958;29;20028;-81
2023/02/17 21:26:02;;;;;;;30.83;18.80;;;;;;;;;;4902048;29;20091;-81
2023/02/17 21:28:28;;;;;;;37.50;20.95;;;;;;;;;;4885436;29;20033;-89
2023/02/17 21:30:54;;;;;;;38.25;21.35;;;;;;;;;;4915949;29;20080;-89
2023/02/17 21:33:20;;;;;;;43.20;22.98;;;;;;;;;;4901657;29;20025;-89
2023/02/17 21:35:46;;;;;;;46.50;22.60;;;;;;;;;;4904669;29;20023;-90
2023/02/17 21:38:15;;;;;;;46.70;22.98;;;;;;;;;;4921288;29;20028;-88
2023/02/17 21:40:41;;;;;;;41.80;21.70;;;;;;;;;;4904718;29;20433;-88
2023/02/17 21:46:11;;;;;;;41.13;21.58;;;;;;;;;;4920823;29;20056;-88
2023/02/17 21:48:37;;;;;;;36.72;20.67;;;;;;;;;;4901050;29;20415;-89
2023/02/17 21:51:07;;;;;;;39.95;21.33;;;;;;;;;;4870383;29;20029;-89
2023/02/17 21:53:34;;;;;;;36.72;21.77;;;;;;;;;;4912249;29;20111;-88
2023/02/17 21:56:00;;;;;;;40.22;22.63;;;;;;;;;;4920893;29;20024;-86
2023/02/17 21:58:27;;;;;;;41.17;22.98;;;;;;;;;;4903443;29;20029;-88
2023/02/17 22:00:53;;;;;;;46.78;26.48;;;;;;;;;;4920946;29;20060;-89
2023/02/17 22:03:19;;;;;;;50.78;27.48;;;;;;;;;;4909254;29;20048;-89
2023/02/17 22:05:45;;;;;;;46.85;25.40;;;;;;;;;;4903897;29;20036;-90
2023/02/17 22:08:11;;;;;;;37.60;22.00;;;;;;;;;;4918195;29;20028;-87
2023/02/17 22:10:40;;;;;;;32.72;19.38;;;;;;;;;;4906364;29;20080;-89
2023/02/17 22:16:11;;;;;;;35.08;20.80;;;;;;;;;;4919578;29;20075;-89
2023/02/17 22:18:37;;;;;;;38.17;20.80;;;;;;;;;;4918101;29;20035;-90
2023/02/17 22:21:06;;;;;;;45.45;26.35;;;;;;;;;;4924697;29;20040;-90
2023/02/17 22:23:32;;;;;;;47.35;27.75;;;;;;;;;;4924902;29;20115;-89
2023/02/17 22:25:59;;;;;;;36.58;21.58;;;;;;;;;;4924697;29;20039;-90
2023/02/17 22:31:29;;;;;;;36.25;22.50;;;;;;;;;;4923433;29;20064;-90
2023/02/17 22:33:56;;;;;;;33.00;20.85;;;;;;;;;;4924166;29;20032;-90
2023/02/17 22:36:23;;;;;;;31.85;18.63;;;;;;;;;;4924679;29;20024;-89
2023/02/17 22:38:49;;;;;;;30.65;18.38;;;;;;;;;;4924909;29;20072;-89
2023/02/17 22:41:17;;;;;;;30.20;17.77;;;;;;;;;;4907749;29;20043;-90
2023/02/17 22:43:43;;;;;;;25.75;17.15;;;;;;;;;;4907829;29;20036;-91
2023/02/17 22:46:14;;;;;;;27.20;17.63;;;;;;;;;;4907781;29;20038;-90
2023/02/17 22:48:41;;;;;;;29.20;17.35;;;;;;;;;;4924434;29;20038;-91
2023/02/17 22:51:08;;;;;;;26.38;16.77;;;;;;;;;;4907626;29;20319;-91
2023/02/17 22:53:36;;;;;;;30.27;16.33;;;;;;;;;;4908048;29;20052;-90
2023/02/17 22:56:03;;;;;;;25.63;15.55;;;;;;;;;;4907515;29;20128;-91
2023/02/17 22:58:29;;;;;;;24.95;15.70;;;;;;;;;;4907474;29;20032;-91
2023/02/17 23:01:06;;;;;;;27.40;15.38;;;;;;;;;;4924006;29;20032;-92
2023/02/17 23:03:32;;;;;;;25.42;16.00;;;;;;;;;;4907317;29;20075;-90
2023/02/17 23:06:02;;;;;;;30.73;16.33;;;;;;;;;;4924015;29;20032;-89
2023/02/17 23:08:29;;;;;;;23.50;15.63;;;;;;;;;;4888586;29;20033;-89
2023/02/17 23:10:55;;;;;;;27.20;15.85;;;;;;;;;;4905317;29;20048;-89
2023/02/17 23:13:40;;;;;;;28.23;15.85;;;;;;;;;;4888570;29;20040;-90
2023/02/17 23:16:06;;;;;;;26.77;16.30;;;;;;;;;;4905233;29;20033;-89
2023/02/17 23:18:33;;;;;;;21.70;15.02;;;;;;;;;;4905241;29;20024;-89
2023/02/17 23:20:59;;;;;;;23.58;15.63;;;;;;;;;;4888379;29;20032;-89
2023/02/17 23:23:26;;;;;;;21.60;15.27;;;;;;;;;;4903393;29;20029;-89
2023/02/17 23:25:53;;;;;;;23.35;15.35;;;;;;;;;;4906082;29;20033;-89
2023/02/17 23:28:20;;;;;;;23.05;14.57;;;;;;;;;;4906665;29;20036;-89
2023/02/17 23:30:47;;;;;;;25.13;14.32;;;;;;;;;;4923198;29;20060;-89
2023/02/17 23:33:16;;;;;;;26.88;15.57;;;;;;;;;;4923540;29;20035;-89
2023/02/17 23:35:46;;;;;;;21.73;15.23;;;;;;;;;;4923599;29;20046;-90
2023/02/17 23:38:16;;;;;;;20.92;14.60;;;;;;;;;;4923557;29;20028;-89
2023/02/17 23:40:43;;;;;;;24.92;15.43;;;;;;;;;;4923336;29;20028;-89
2023/02/17 23:49:29;;;;;;;24.70;15.93;;;;;;;;;;4922919;29;20056;-89
2023/02/17 23:51:55;;;;;;;24.20;15.10;;;;;;;;;;4923158;29;20105;-90
2023/02/17 23:54:23;;;;;;;22.25;14.57;;;;;;;;;;4923411;29;20101;-90
2023/02/17 23:56:49;;;;;;;22.83;14.30;;;;;;;;;;4906327;29;20029;-90
2023/02/17 23:59:15;;;;;;;25.13;15.25;;;;;;;;;;4906334;29;20036;-90
